Time;durP1;ratioP1;P1;durP2;ratioP2;P2;SDS_P1;SDS_P2;PMS_P1;PMS_P2;Temp;Humidity;BMP_temperature;BMP_pressure;BME280_temperature;BME280_humidity;BME280_pressure;Samples;Min_cycle;Max_cycle;Signal;HPM_P1;HPM_P2
2021/12/26 00:00:49;;;;;;;26.75;20.55;;;;;;;28.17;62.66;101262.97;5013997;28;70373;-35
2021/12/26 00:03:24;;;;;;;46.67;20.83;;;;;;;28.12;62.18;101238.44;5014577;28;65509;-35
2021/12/26 00:05:58;;;;;;;52.50;21.73;;;;;;;28.41;63.18;101273.34;5015402;28;70551;-33
2021/12/26 00:08:29;;;;;;;72.30;29.63;;;;;;;28.38;63.75;101276.44;5018192;28;65375;-35
2021/12/26 00:11:00;;;;;;;55.80;30.52;;;;;;;28.33;65.74;101278.88;5019508;28;69361;-34
2021/12/26 00:13:31;;;;;;;61.17;29.17;;;;;;;28.25;67.63;101277.16;5020639;28;66804;-33
2021/12/26 00:16:04;;;;;;;52.13;31.57;;;;;;;28.19;66.79;101277.06;5018736;28;69985;-33
2021/12/26 00:18:36;;;;;;;40.85;30.88;;;;;;;28.17;69.04;101295.34;5019130;28;66226;-35
2021/12/26 00:21:07;;;;;;;47.83;31.30;;;;;;;28.09;70.71;101303.56;5013174;28;70012;-35
2021/12/26 00:23:38;;;;;;;42.28;31.50;;;;;;;28.11;68.35;101313.13;5018941;28;67096;-35
2021/12/26 00:26:09;;;;;;;49.25;34.15;;;;;;;28.07;71.38;101323.44;5014346;28;70161;-35
2021/12/26 00:28:40;;;;;;;47.80;32.65;;;;;;;28.11;70.39;101326.59;5012641;28;66445;-35
2021/12/26 00:31:11;;;;;;;48.67;31.02;;;;;;;28.04;69.43;101320.28;5014671;28;69810;-35
2021/12/26 00:33:43;;;;;;;52.72;32.03;;;;;;;28.07;69.93;101323.44;5008588;28;65718;-34
2021/12/26 00:36:15;;;;;;;46.63;32.22;;;;;;;28.12;69.83;101330.13;5010887;28;70106;-34
2021/12/26 00:38:46;;;;;;;40.80;30.90;;;;;;;28.18;68.82;101332.06;5028837;28;66286;-35
2021/12/26 00:41:17;;;;;;;40.03;32.92;;;;;;;28.20;69.28;101343.50;5006249;28;71566;-35
2021/12/26 00:43:48;;;;;;;43.95;32.53;;;;;;;28.24;69.03;101344.78;5010137;28;66279;-36
2021/12/26 00:46:19;;;;;;;45.22;31.65;;;;;;;28.23;69.71;101343.13;5013921;28;70675;-34
2021/12/26 00:48:50;;;;;;;47.47;29.77;;;;;;;28.25;70.88;101349.13;5014170;28;65544;-34
2021/12/26 00:51:21;;;;;;;43.47;28.58;;;;;;;28.17;69.85;101343.88;5010938;28;69821;-37
2021/12/26 00:53:52;;;;;;;33.25;26.67;;;;;;;28.18;69.28;101345.56;5012069;28;66616;-34
2021/12/26 00:56:23;;;;;;;39.92;27.85;;;;;;;28.23;69.23;101337.72;5012581;28;69383;-35
2021/12/26 00:58:54;;;;;;;39.47;29.00;;;;;;;28.20;69.68;101346.19;5003604;28;67839;-35
2021/12/26 01:01:26;;;;;;;35.40;28.95;;;;;;;28.30;69.75;101365.59;5019752;28;68959;-35
2021/12/26 01:03:57;;;;;;;42.33;31.98;;;;;;;28.25;70.53;101370.72;4994963;28;66196;-34
2021/12/26 01:06:28;;;;;;;44.63;32.80;;;;;;;28.23;69.47;101353.91;5012028;28;69154;-35
2021/12/26 01:08:59;;;;;;;45.65;34.75;;;;;;;28.23;70.25;101360.13;5028087;28;66130;-35
2021/12/26 01:11:37;;;;;;;47.55;34.97;;;;;;;28.27;70.36;101366.81;5011263;28;69301;-34
2021/12/26 01:14:12;;;;;;;43.28;32.00;;;;;;;28.31;70.95;101366.44;5012598;28;63715;-34
2021/12/26 01:17:10;;;;;;;40.47;31.83;;;;;;;28.23;71.25;101365.53;5007775;28;71229;-36
2021/12/26 01:19:54;;;;;;;42.30;31.92;;;;;;;28.34;70.19;101366.91;4996788;28;65446;-35
2021/12/26 01:22:26;;;;;;;;;;;;;;;28.02;72.34;101371.72;5011684;28;70436;-35
2021/12/26 01:25:08;;;;;;;41.85;30.75;;;;;;;28.05;70.27;101335.44;5009649;28;66368;-35
2021/12/26 01:27:42;;;;;;;43.80;29.58;;;;;;;28.37;69.74;101368.38;5002888;28;69406;-34
2021/12/26 01:30:14;;;;;;;46.20;32.22;;;;;;;28.14;70.53;101344.25;5010213;28;66165;-34
2021/12/26 01:32:49;;;;;;;41.00;29.58;;;;;;;28.37;69.67;101365.69;5002290;28;70129;-36
2021/12/26 01:35:30;;;;;;;37.90;28.02;;;;;;;28.44;69.39;101375.53;5013524;28;66276;-34
2021/12/26 01:38:20;;;;;;;45.30;27.08;;;;;;;28.48;69.65;101376.81;5010404;28;70259;-33
2021/12/26 01:41:28;;;;;;;40.63;29.33;;;;;;;28.56;69.75;101380.44;5015643;28;65954;-33
2021/12/26 01:44:23;;;;;;;43.65;30.25;;;;;;;28.57;69.72;101382.09;5016140;28;69537;-36
2021/12/26 01:46:54;;;;;;;37.60;29.67;;;;;;;28.52;69.87;101375.41;5011724;28;65147;-33
2021/12/26 01:49:32;;;;;;;35.45;26.63;;;;;;;28.44;69.57;101356.63;5013096;28;70024;-35
2021/12/26 01:52:06;;;;;;;33.95;26.23;;;;;;;28.31;70.82;101334.91;5002322;28;67208;-35
2021/12/26 01:54:47;;;;;;;39.58;26.10;;;;;;;28.62;69.78;101369.69;5026384;28;70142;-35
2021/12/26 01:57:19;;;;;;;38.88;25.27;;;;;;;28.71;70.35;101367.69;5025766;28;64715;-38
2021/12/26 01:59:49;;;;;;;;;;;;;;;28.38;72.41;101373.56;5022254;28;70174;-36
2021/12/26 02:02:28;;;;;;;33.78;25.23;;;;;;;28.66;70.21;101364.72;4998265;28;66389;-36
2021/12/26 02:04:59;;;;;;;36.03;28.15;;;;;;;28.60;69.24;101344.75;5011687;28;70359;-36
2021/12/26 02:07:30;;;;;;;42.88;27.58;;;;;;;28.78;69.74;101370.44;5007926;28;66642;-35
2021/12/26 02:10:02;;;;;;;50.33;28.40;;;;;;;28.78;69.53;101368.59;5016212;28;69562;-36
2021/12/26 02:12:33;;;;;;;43.70;29.03;;;;;;;28.81;69.27;101365.50;5029116;28;66250;-34
2021/12/26 02:15:04;;;;;;;37.10;28.30;;;;;;;28.77;70.12;101361.50;4998820;28;69950;-34
2021/12/26 02:17:45;;;;;;;42.53;28.17;;;;;;;28.84;69.54;101359.72;5015744;28;66187;-35
2021/12/26 02:23:20;;;;;;;31.58;26.85;;;;;;;28.51;68.95;101303.56;5005877;28;66308;-36
2021/12/26 02:28:29;;;;;;;41.00;23.45;;;;;;;28.87;68.32;101356.63;5009833;28;67154;-36
2021/12/26 02:31:01;;;;;;;43.63;24.33;;;;;;;28.84;68.66;101356.19;5010976;28;69245;-35
2021/12/26 02:33:36;;;;;;;35.67;25.85;;;;;;;28.86;68.78;101359.50;5011802;28;66775;-36
2021/12/26 02:36:07;;;;;;;36.08;26.30;;;;;;;28.89;69.07;101365.38;5013440;28;69331;-36
2021/12/26 02:38:38;;;;;;;39.40;27.38;;;;;;;28.89;69.13;101353.72;4994187;28;65367;-35
2021/12/26 02:41:09;;;;;;;37.65;28.75;;;;;;;28.98;69.18;101357.13;5015699;28;69207;-35
2021/12/26 02:43:40;;;;;;;35.20;25.27;;;;;;;28.94;68.25;101340.47;5006400;28;66345;-36
2021/12/26 02:46:11;;;;;;;32.38;23.15;;;;;;;29.01;68.80;101348.63;5015048;28;70027;-36
2021/12/26 02:48:44;;;;;;;25.05;20.75;;;;;;;29.00;68.50;101344.25;5018320;28;65363;-35
2021/12/26 02:51:15;;;;;;;33.83;21.15;;;;;;;29.06;68.39;101338.06;5011613;28;70087;-35
2021/12/26 02:53:48;;;;;;;23.80;19.35;;;;;;;28.95;68.25;101310.56;5012941;28;65445;-34
2021/12/26 02:56:19;;;;;;;27.17;18.38;;;;;;;29.11;68.38;101339.19;5010242;28;70059;-36
2021/12/26 02:58:50;;;;;;;25.98;20.15;;;;;;;29.16;68.00;101339.41;5014763;28;66159;-36
2021/12/26 03:01:24;;;;;;;22.00;18.58;;;;;;;29.08;67.87;101328.75;5012863;28;69922;-35
2021/12/26 03:03:56;;;;;;;33.38;19.55;;;;;;;29.14;67.81;101324.41;5013089;28;66732;-37
2021/12/26 03:06:37;;;;;;;39.15;18.98;;;;;;;29.26;67.35;101339.06;4997075;28;70654;-36
2021/12/26 03:09:08;;;;;;;23.93;19.03;;;;;;;29.24;68.22;101330.31;5014820;28;66316;-36
2021/12/26 03:11:39;;;;;;;27.02;20.30;;;;;;;29.30;67.85;101334.91;5017635;28;70348;-36
2021/12/26 03:14:10;;;;;;;25.87;20.43;;;;;;;29.28;68.59;101331.59;5010837;28;65270;-36
2021/12/26 03:16:50;;;;;;;31.77;23.13;;;;;;;29.22;68.80;101324.25;5016785;28;70327;-37
2021/12/26 03:19:21;;;;;;;30.60;22.98;;;;;;;29.36;68.38;101328.75;5030288;28;66290;-35
2021/12/26 03:21:52;;;;;;;30.08;21.55;;;;;;;29.39;68.06;101325.63;5011960;28;69836;-35
2021/12/26 03:24:24;;;;;;;23.38;20.90;;;;;;;29.45;67.74;101321.28;5013833;28;66490;-35
2021/12/26 03:27:05;;;;;;;27.88;21.27;;;;;;;29.44;68.12;101318.78;5009849;28;70454;-35
2021/12/26 03:29:36;;;;;;;36.90;22.73;;;;;;;29.60;68.99;101318.44;5001813;28;66040;-38
2021/12/26 03:32:14;;;;;;;30.90;22.23;;;;;;;29.55;68.93;101310.94;4997275;28;70261;-31
2021/12/26 03:34:48;;;;;;;32.53;20.30;;;;;;;29.71;68.46;101293.56;5009544;28;65472;-34
2021/12/26 03:37:19;;;;;;;52.35;22.25;;;;;;;29.91;67.47;101299.03;5013620;28;70503;-36
2021/12/26 03:43:47;;;;;;;37.92;21.23;;;;;;;30.14;66.32;101287.84;5028210;28;69309;-41
2021/12/26 03:46:18;;;;;;;63.40;22.38;;;;;;;30.20;65.33;101280.78;5030470;28;65777;-39
2021/12/26 03:48:49;;;;;;;47.28;21.75;;;;;;;30.25;65.02;101279.13;4987678;28;71089;-40
2021/12/26 03:51:20;;;;;;;34.30;20.80;;;;;;;30.37;65.08;101287.50;5016502;28;66119;-43
2021/12/26 03:53:52;;;;;;;41.65;21.30;;;;;;;30.43;65.55;101277.72;5006027;28;70368;-42
2021/12/26 03:56:25;;;;;;;46.78;20.45;;;;;;;30.47;64.62;101273.53;5017800;28;65440;-40
2021/12/26 03:59:14;;;;;;;29.10;19.63;;;;;;;30.53;64.67;101286.22;4998800;28;69382;-41
2021/12/26 04:01:45;;;;;;;26.53;17.77;;;;;;;30.54;64.68;101268.97;5017385;28;66541;-43
2021/12/26 05:15:45;;;;;;;21.67;17.35;;;;;;;31.49;58.72;101139.28;5013053;28;70351;-41
2021/12/26 05:18:18;;;;;;;22.85;17.30;;;;;;;31.52;58.82;101133.44;4995412;28;65003;-41
2021/12/26 05:20:56;;;;;;;19.25;17.13;;;;;;;31.54;58.62;101120.50;5014073;28;70875;-41
2021/12/26 05:23:28;;;;;;;25.00;17.83;;;;;;;31.58;59.10;101121.69;5024228;28;66559;-41
2021/12/26 05:25:59;;;;;;;27.30;18.75;;;;;;;31.60;59.37;101116.91;4996268;28;70184;-41
2021/12/26 05:28:34;;;;;;;30.77;18.20;;;;;;;31.63;59.61;101103.94;5011480;28;66883;-41
2021/12/26 05:31:07;;;;;;;34.75;17.90;;;;;;;31.60;58.50;101103.34;5005540;28;70524;-43
2021/12/26 05:33:42;;;;;;;23.98;16.42;;;;;;;31.45;56.81;101094.66;5005141;28;65857;-40
2021/12/26 05:36:14;;;;;;;;;;;;;;;31.11;55.76;101099.44;5015902;28;70085;-48
2021/12/26 05:38:46;;;;;;;17.17;14.77;;;;;;;31.24;55.89;101092.31;4998681;28;65826;-41
2021/12/26 05:41:18;;;;;;;29.35;15.88;;;;;;;31.18;55.27;101091.28;5032007;28;69134;-43
2021/12/26 05:44:05;;;;;;;27.08;16.27;;;;;;;31.08;54.87;101086.31;5010930;28;66170;-42
2021/12/26 05:46:37;;;;;;;25.10;14.48;;;;;;;31.03;54.43;101086.13;5007916;28;70345;-42
2021/12/26 05:49:09;;;;;;;16.15;14.02;;;;;;;30.96;53.94;101089.94;4996167;28;65405;-41
2021/12/26 05:51:50;;;;;;;23.20;13.85;;;;;;;30.76;52.89;101071.03;4999288;28;69143;-44
2021/12/26 05:54:36;;;;;;;27.08;14.02;;;;;;;30.71;52.09;101072.53;4984409;28;65899;-42
2021/12/26 05:57:08;;;;;;;15.77;13.27;;;;;;;30.66;51.45;101075.03;4989989;28;68833;-42
2021/12/26 05:59:38;;;;;;;21.52;13.80;;;;;;;30.58;51.80;101067.16;5018549;28;65968;-41
2021/12/26 06:02:09;;;;;;;16.13;13.15;;;;;;;30.53;50.34;101066.94;5013960;28;70016;-41
2021/12/26 06:04:42;;;;;;;16.80;13.10;;;;;;;30.46;49.82;101063.44;5014531;28;66356;-41
2021/12/26 06:07:15;;;;;;;14.73;13.20;;;;;;;30.38;49.06;101055.56;5011371;28;70640;-43
2021/12/26 06:09:48;;;;;;;13.48;12.20;;;;;;;30.33;48.76;101047.25;4993381;28;66003;-43
2021/12/26 08:58:57;;;;;;;25.40;23.02;;;;;;;32.03;55.83;100901.78;4999400;28;66801;-42
2021/12/26 09:01:29;;;;;;;33.97;24.85;;;;;;;32.04;55.61;100892.59;5014059;28;69052;-42
2021/12/26 09:03:59;;;;;;;34.75;24.88;;;;;;;32.10;55.90;100895.47;5021548;28;65155;-42
2021/12/26 09:06:30;;;;;;;25.35;22.85;;;;;;;32.10;55.64;100901.72;5020962;28;69928;-42
2021/12/26 09:09:03;;;;;;;31.40;23.30;;;;;;;32.10;55.23;100892.75;5020231;28;66633;-42
2021/12/26 09:11:33;;;;;;;;;;;;;;;31.89;56.03;100900.25;5020307;28;69951;-42
2021/12/26 09:14:04;;;;;;;24.42;21.95;;;;;;;32.08;55.70;100897.56;5012937;28;66134;-42
2021/12/26 09:16:35;;;;;;;24.90;22.35;;;;;;;32.10;55.58;100900.91;5019842;28;69238;-42
2021/12/26 09:19:07;;;;;;;29.77;22.65;;;;;;;32.13;55.95;100911.28;5024306;28;66304;-43
2021/12/26 09:21:37;;;;;;;25.17;22.50;;;;;;;32.13;55.58;100911.28;5019658;28;70583;-42
2021/12/26 09:24:08;;;;;;;32.08;22.90;;;;;;;32.15;55.88;100915.44;5015704;28;65448;-44
2021/12/26 09:26:39;;;;;;;29.35;22.00;;;;;;;32.14;55.55;100911.06;5018887;28;69632;-44
2021/12/26 09:29:10;;;;;;;28.75;20.88;;;;;;;32.16;56.04;100910.84;5016659;28;65503;-44
2021/12/26 09:31:40;;;;;;;25.83;20.35;;;;;;;32.22;56.04;100926.19;5016303;28;69413;-44
2021/12/26 09:34:11;;;;;;;29.30;19.77;;;;;;;32.22;56.05;100927.03;5018628;28;66027;-43
2021/12/26 09:36:42;;;;;;;23.38;19.25;;;;;;;32.22;56.24;100915.34;5018197;28;70508;-43
2021/12/26 09:39:13;;;;;;;23.23;18.77;;;;;;;32.23;56.33;100925.13;5010485;28;66089;-45
2021/12/26 09:41:43;;;;;;;27.08;18.88;;;;;;;32.24;56.45;100924.09;5017893;28;69999;-44
2021/12/26 09:44:20;;;;;;;20.58;18.63;;;;;;;32.12;56.47;100915.03;5018586;28;66902;-43
2021/12/26 09:46:50;;;;;;;24.55;18.90;;;;;;;32.23;56.31;100935.97;5019344;28;69920;-45
2021/12/26 09:49:21;;;;;;;27.73;19.17;;;;;;;32.27;56.80;100945.34;5018938;28;66399;-44
2021/12/26 09:51:56;;;;;;;21.08;18.90;;;;;;;32.28;57.09;100955.13;5010998;28;68937;-43
2021/12/26 09:55:01;;;;;;;21.60;18.63;;;;;;;32.26;56.81;100947.25;5018066;28;66501;-42
2021/12/26 09:57:32;;;;;;;22.42;18.52;;;;;;;32.29;57.13;100954.09;5014574;28;71093;-42
2021/12/26 10:00:21;;;;;;;23.73;19.70;;;;;;;32.27;57.14;100951.59;5008880;28;66510;-39
2021/12/26 10:03:11;;;;;;;27.65;19.40;;;;;;;32.28;57.87;100953.25;5016863;28;69711;-42
2021/12/26 10:06:18;;;;;;;22.33;18.33;;;;;;;32.31;57.68;100954.69;5019444;28;65748;-44
2021/12/26 10:09:01;;;;;;;21.40;19.17;;;;;;;32.36;58.25;100956.72;5014037;28;69788;-44
2021/12/26 10:11:38;;;;;;;20.67;18.52;;;;;;;32.33;57.31;100954.47;5017165;28;65745;-43
2021/12/26 10:14:17;;;;;;;21.45;18.35;;;;;;;32.29;57.61;100954.09;5011411;28;70261;-43
2021/12/26 10:16:54;;;;;;;21.30;19.23;;;;;;;32.33;57.20;100966.16;5018599;28;65772;-43
2021/12/26 10:19:25;;;;;;;27.65;20.25;;;;;;;32.30;57.69;100965.78;5016155;28;69078;-43
2021/12/26 10:21:58;;;;;;;21.00;18.95;;;;;;;32.20;57.76;100960.88;5018637;28;67094;-42
2021/12/26 10:24:32;;;;;;;22.20;19.52;;;;;;;32.31;57.45;100989.16;5019514;28;69831;-43
2021/12/26 10:27:15;;;;;;;32.45;21.30;;;;;;;32.31;58.20;101000.81;5014603;28;66194;-43
2021/12/26 10:29:46;;;;;;;35.25;20.92;;;;;;;32.28;58.72;101002.09;5010144;28;69905;-43
2021/12/26 10:32:25;;;;;;;30.15;20.77;;;;;;;32.25;59.45;101008.00;5004937;28;67432;-42
2021/12/26 10:35:01;;;;;;;32.22;19.92;;;;;;;32.12;59.42;100974.75;5018426;28;69529;-43
2021/12/26 10:37:40;;;;;;;40.17;18.45;;;;;;;32.13;60.11;100998.13;5033616;28;66431;-46
2021/12/26 10:40:18;;;;;;;29.52;17.23;;;;;;;32.12;60.66;101012.75;5014882;28;70214;-44
2021/12/26 10:42:53;;;;;;;33.65;16.10;;;;;;;32.18;61.03;101022.69;4984334;28;65389;-42
2021/12/26 10:45:33;;;;;;;31.00;16.10;;;;;;;32.13;62.17;101028.00;5019358;28;69401;-45
2021/12/26 10:48:06;;;;;;;29.70;14.82;;;;;;;32.11;61.41;101032.81;5009991;28;65332;-44
2021/12/26 10:50:41;;;;;;;36.90;15.02;;;;;;;32.07;61.68;101037.84;5018186;28;69086;-45
2021/12/26 10:53:14;;;;;;;31.95;15.95;;;;;;;32.05;61.45;101045.38;5017746;28;66160;-42
2021/12/26 10:55:51;;;;;;;47.65;17.00;;;;;;;32.03;61.28;101042.88;5016734;28;70349;-42
2021/12/26 10:58:24;;;;;;;35.67;16.00;;;;;;;31.97;61.84;101048.38;5012624;28;65286;-42
2021/12/26 11:00:58;;;;;;;29.33;15.27;;;;;;;31.83;61.63;101026.78;5018694;28;70089;-43
2021/12/26 11:03:31;;;;;;;27.23;14.48;;;;;;;31.92;61.91;101050.94;5008439;28;43176;-43
2021/12/26 11:06:06;;;;;;;31.88;15.30;;;;;;;31.93;61.65;101053.44;5013147;28;69712;-43
2021/12/26 11:08:44;;;;;;;33.47;14.35;;;;;;;31.77;61.42;101037.69;5013890;28;66035;-42
2021/12/26 11:11:20;;;;;;;26.90;13.82;;;;;;;31.88;61.79;101064.09;5012481;28;70359;-42
2021/12/26 11:14:01;;;;;;;35.92;13.38;;;;;;;31.82;62.56;101056.84;5014204;28;65435;-42
2021/12/26 11:16:40;;;;;;;34.22;14.20;;;;;;;31.83;62.26;101069.34;5015883;28;69984;-45
2021/12/26 11:19:11;;;;;;;26.13;14.82;;;;;;;31.85;61.98;101077.28;5033915;28;66332;-43
2021/12/26 11:21:42;;;;;;;24.17;14.25;;;;;;;31.85;62.13;101085.41;4997938;28;71360;-44
2021/12/26 11:24:13;;;;;;;32.58;14.50;;;;;;;31.78;61.88;101080.03;5016720;28;66509;-40
2021/12/26 11:26:45;;;;;;;33.73;14.87;;;;;;;31.76;62.67;101084.84;5018855;28;70155;-42
2021/12/26 11:29:15;;;;;;;28.90;15.40;;;;;;;31.75;62.25;101083.19;5015356;28;66357;-41
2021/12/26 11:31:50;;;;;;;32.38;15.40;;;;;;;31.75;62.06;101091.31;5019189;28;70323;-42
2021/12/26 11:34:21;;;;;;;39.88;17.30;;;;;;;31.74;62.36;101092.38;5015397;28;65494;-42
2021/12/26 11:36:52;;;;;;;26.30;15.30;;;;;;;31.75;62.41;101103.00;5019572;28;70310;-41
2021/12/26 11:39:45;;;;;;;52.92;16.92;;;;;;;31.73;62.42;101104.28;5014968;28;65955;-43
2021/12/26 11:42:57;;;;;;;33.70;16.48;;;;;;;31.69;63.38;101116.63;5013762;28;70252;-42
2021/12/26 11:45:54;;;;;;;40.40;17.55;;;;;;;31.70;63.43;101112.84;5012045;28;66578;-40
2021/12/26 11:49:37;;;;;;;29.38;16.55;;;;;;;31.73;63.97;101113.25;5002155;28;69318;-39
2021/12/26 11:53:27;;;;;;;30.13;15.63;;;;;;;31.79;64.17;101108.84;5005318;28;66434;-40
2021/12/26 11:56:30;;;;;;;37.63;15.82;;;;;;;31.87;63.41;101113.97;5000418;28;70150;-46
2021/12/26 11:59:37;;;;;;;37.72;17.58;;;;;;;31.77;64.41;101124.50;5010160;28;65468;-42
2021/12/26 12:02:08;;;;;;;32.92;19.27;;;;;;;31.78;63.84;101126.16;4997700;28;70438;-42
2021/12/26 12:04:40;;;;;;;;;;;;;;;31.47;65.18;101143.25;5016885;28;66144;-45
2021/12/26 12:07:10;;;;;;;33.00;17.70;;;;;;;31.66;64.19;101139.59;5017537;28;70237;-43
2021/12/26 12:09:46;;;;;;;30.67;15.30;;;;;;;31.67;64.30;101145.84;5016300;28;66421;-43
2021/12/26 12:12:18;;;;;;;34.95;16.83;;;;;;;31.64;64.56;101151.72;4992368;28;69279;-43
2021/12/26 12:14:59;;;;;;;27.58;15.40;;;;;;;31.63;64.22;101164.44;5015303;28;66475;-43
2021/12/26 12:17:35;;;;;;;28.45;15.23;;;;;;;31.61;64.29;101152.97;5010229;28;70146;-43
2021/12/26 12:20:04;;;;;;;;;;;;;;;31.30;66.46;101151.06;5005828;28;65703;-44
2021/12/26 12:22:36;;;;;;;46.13;18.95;;;;;;;31.45;65.52;101143.47;5012502;28;69395;-40
2021/12/26 12:25:34;;;;;;;40.75;20.90;;;;;;;31.31;66.32;101152.69;5015531;28;66772;-44
2021/12/26 12:28:12;;;;;;;33.60;18.58;;;;;;;31.31;65.55;101163.53;5013269;28;70375;-42
2021/12/26 12:30:46;;;;;;;45.30;20.80;;;;;;;31.22;65.93;101156.72;5017471;28;66199;-42
2021/12/26 12:33:30;;;;;;;79.85;42.40;;;;;;;31.43;67.51;101182.72;5015549;28;69232;-42
2021/12/26 12:36:13;;;;;;;93.57;51.45;;;;;;;31.30;68.61;101162.72;5013979;28;66446;-43
2021/12/26 12:38:49;;;;;;;93.03;56.47;;;;;;;31.40;67.66;101189.41;5014563;28;70483;-44
2021/12/26 12:41:39;;;;;;;66.80;35.00;;;;;;;31.38;68.70;101192.31;5018539;28;65394;-43
2021/12/26 12:44:28;;;;;;;52.42;32.15;;;;;;;31.31;69.35;101190.66;5028687;28;69917;-42
2021/12/26 12:47:03;;;;;;;45.78;22.10;;;;;;;31.25;68.60;101169.84;5014705;28;65743;-43
2021/12/26 12:49:52;;;;;;;33.03;17.33;;;;;;;31.03;69.28;101159.28;5019396;28;69289;-42
2021/12/26 12:52:40;;;;;;;38.55;16.95;;;;;;;31.30;68.11;101210.69;5019949;28;65650;-42
2021/12/26 12:55:21;;;;;;;51.45;16.95;;;;;;;31.33;65.20;101194.81;5017102;28;69741;-41
2021/12/26 12:57:54;;;;;;;53.38;16.65;;;;;;;31.14;63.57;101180.28;5013282;28;65794;-42
2021/12/26 13:00:25;;;;;;;47.58;16.17;;;;;;;31.21;63.12;101195.72;5035337;28;69618;-47
2021/12/26 13:03:00;;;;;;;65.22;15.85;;;;;;;31.20;63.02;101199.44;5017444;28;66218;-42
2021/12/26 13:05:36;;;;;;;58.50;16.98;;;;;;;31.04;62.44;101185.34;5019765;28;70279;-42
2021/12/26 13:08:09;;;;;;;43.97;15.38;;;;;;;31.13;62.25;101210.34;5021613;28;66755;-42
2021/12/26 13:10:40;;;;;;;36.22;14.55;;;;;;;31.04;61.42;101207.03;5011039;28;69577;-42
2021/12/26 13:13:18;;;;;;;37.53;16.02;;;;;;;31.01;60.39;101207.47;5018213;28;66285;-42
2021/12/26 13:16:02;;;;;;;42.05;15.65;;;;;;;30.95;58.76;101205.59;5018865;28;70190;-42
2021/12/26 13:18:42;;;;;;;39.85;14.07;;;;;;;30.80;59.20;101186.06;5018680;28;66076;-41
2021/12/26 13:21:19;;;;;;;40.28;14.68;;;;;;;30.86;58.07;101215.81;5020479;28;69767;-42
2021/12/26 13:24:04;;;;;;;49.78;14.40;;;;;;;30.66;56.82;101196.88;4993415;28;66703;-43
2021/12/26 13:26:42;;;;;;;37.33;14.95;;;;;;;30.76;57.09;101217.28;5015865;28;69209;-41
2021/12/26 13:29:17;;;;;;;33.38;14.63;;;;;;;30.67;56.27;101222.06;5002805;28;66027;-43
2021/12/26 13:32:01;;;;;;;30.35;15.57;;;;;;;30.64;55.11;101222.50;5016399;28;71041;-42
2021/12/26 13:35:20;;;;;;;29.70;16.38;;;;;;;30.51;53.60;101207.13;4984715;28;66107;-46
2021/12/26 13:37:59;;;;;;;33.22;17.05;;;;;;;30.48;54.00;101218.38;5002017;28;70583;-44
2021/12/26 13:40:58;;;;;;;34.72;16.75;;;;;;;30.42;54.13;101230.00;5013313;28;66292;-42
2021/12/26 13:43:36;;;;;;;37.25;17.80;;;;;;;30.32;53.40;101213.38;5016126;28;69192;-44
2021/12/26 13:46:11;;;;;;;44.22;18.25;;;;;;;30.35;53.15;101223.78;5032251;28;64584;-42
2021/12/26 13:48:57;;;;;;;47.40;17.55;;;;;;;30.30;52.01;101220.88;5014796;28;69964;-42
2021/12/26 13:51:55;;;;;;;42.33;17.63;;;;;;;30.27;52.36;101222.94;5019964;28;65127;-43
2021/12/26 13:54:49;;;;;;;64.75;17.00;;;;;;;30.23;52.21;101220.88;4997335;28;70343;-42
2021/12/26 13:57:29;;;;;;;97.38;17.23;;;;;;;30.20;51.83;101216.69;5001132;28;66006;-43
2021/12/26 14:00:12;;;;;;;62.03;17.15;;;;;;;30.16;52.06;101223.53;5017742;28;69239;-43
2021/12/26 14:02:45;;;;;;;77.82;17.90;;;;;;;30.11;51.38;101223.31;4996418;28;66538;-43
2021/12/26 14:05:25;;;;;;;60.50;17.45;;;;;;;30.11;51.52;101234.13;5019303;28;70338;-45
2021/12/26 14:08:01;;;;;;;63.15;17.10;;;;;;;30.08;51.40;101231.84;4999172;28;66240;-44
2021/12/26 14:10:35;;;;;;;58.83;16.83;;;;;;;30.03;51.26;101239.75;5028269;28;70307;-42
2021/12/26 14:13:19;;;;;;;48.83;15.27;;;;;;;30.01;51.33;101239.97;5002030;28;65146;-42
2021/12/26 14:16:30;;;;;;;51.38;15.38;;;;;;;29.96;50.81;101220.00;5019012;28;70018;-42
2021/12/26 14:19:26;;;;;;;51.78;15.63;;;;;;;30.02;51.73;101224.56;5014956;28;66237;-43
2021/12/26 14:22:08;;;;;;;60.05;15.70;;;;;;;30.03;51.49;101226.22;5017750;28;69616;-42
2021/12/26 14:24:45;;;;;;;47.67;16.35;;;;;;;30.06;50.89;101231.22;5015275;28;66862;-41
2021/12/26 14:27:17;;;;;;;40.10;15.77;;;;;;;30.05;50.79;101227.69;5017972;28;70097;-42
2021/12/26 14:30:09;;;;;;;44.22;16.40;;;;;;;30.04;50.68;101217.09;5015242;28;66469;-41
2021/12/26 14:32:59;;;;;;;58.85;15.80;;;;;;;29.98;50.07;101202.50;5014580;28;70146;-42
2021/12/26 14:36:09;;;;;;;48.63;14.60;;;;;;;29.94;50.11;101206.66;5005992;28;66058;-43
2021/12/26 14:39:02;;;;;;;46.43;14.73;;;;;;;29.93;50.52;101202.31;5015962;28;68612;-43
2021/12/26 14:41:59;;;;;;;61.55;14.93;;;;;;;29.89;50.43;101208.31;5010584;28;66538;-44
2021/12/26 14:45:14;;;;;;;42.80;14.07;;;;;;;29.67;50.38;101195.00;5014735;28;69113;-42
2021/12/26 14:47:50;;;;;;;44.03;13.45;;;;;;;29.78;50.91;101213.31;4996113;28;66191;-43
2021/12/26 14:50:30;;;;;;;41.78;14.35;;;;;;;29.74;50.92;101206.63;5013397;28;70397;-44
2021/12/26 14:53:20;;;;;;;41.70;13.60;;;;;;;29.66;49.24;101214.94;5014365;28;65514;-42
2021/12/26 14:56:13;;;;;;;44.58;13.82;;;;;;;29.64;49.42;101206.19;5022490;28;69864;-44
2021/12/26 14:59:04;;;;;;;35.63;13.57;;;;;;;29.59;50.10;101192.44;4992914;28;65953;-44
2021/12/26 15:01:40;;;;;;;42.78;13.45;;;;;;;29.57;50.08;101191.81;5015482;28;69728;-45
2021/12/26 15:04:31;;;;;;;41.35;12.35;;;;;;;29.57;49.21;101199.91;5016572;28;66831;-43
2021/12/26 15:07:17;;;;;;;30.20;11.88;;;;;;;29.48;48.90;101191.16;5002550;28;69633;-44
2021/12/26 15:10:02;;;;;;;23.15;11.95;;;;;;;29.47;48.31;101191.34;5010030;28;66303;-44
2021/12/26 15:12:54;;;;;;;28.70;11.00;;;;;;;29.46;48.56;101193.22;5012861;28;69720;-43
2021/12/26 15:15:34;;;;;;;26.05;10.63;;;;;;;29.40;48.62;101200.28;5012512;28;65199;-43
2021/12/26 15:18:14;;;;;;;29.23;10.48;;;;;;;29.41;48.81;101203.81;5013417;28;70545;-43
2021/12/26 15:20:54;;;;;;;24.65;11.23;;;;;;;29.37;48.04;101194.44;5015011;28;66331;-44
2021/12/26 15:23:28;;;;;;;19.70;10.48;;;;;;;29.29;48.11;101203.56;5011766;28;70142;-43
2021/12/26 15:26:05;;;;;;;22.02;10.38;;;;;;;29.29;48.08;101197.31;5015179;28;65641;-42
2021/12/26 15:28:42;;;;;;;28.10;9.68;;;;;;;29.27;48.59;101200.22;5017236;28;70568;-43
2021/12/26 15:31:34;;;;;;;18.58;9.48;;;;;;;29.21;48.36;101195.63;5014247;28;66521;-45
2021/12/26 15:34:09;;;;;;;29.00;10.05;;;;;;;29.22;48.08;101199.97;5009470;28;70046;-44
2021/12/26 15:36:43;;;;;;;28.80;9.52;;;;;;;29.13;47.29;101182.28;5016513;28;65467;-43
2021/12/26 15:39:19;;;;;;;25.65;10.15;;;;;;;29.13;46.21;101198.50;5032240;28;70295;-44
2021/12/26 15:41:54;;;;;;;20.27;9.20;;;;;;;29.09;45.99;101192.66;5016458;28;66288;-46
2021/12/26 15:44:28;;;;;;;19.52;9.43;;;;;;;29.04;46.33;101194.31;5017140;28;69523;-45
2021/12/26 15:47:03;;;;;;;17.25;8.93;;;;;;;28.99;45.62;101191.34;5014151;28;66743;-45
2021/12/26 15:49:35;;;;;;;17.67;8.85;;;;;;;28.93;45.18;101190.28;5018883;28;69747;-42
2021/12/26 15:52:06;;;;;;;14.38;8.40;;;;;;;28.87;45.31;101183.81;5016039;28;66556;-43
2021/12/26 15:54:37;;;;;;;14.32;8.75;;;;;;;28.84;44.87;101183.38;5016235;28;70132;-42
2021/12/26 15:57:07;;;;;;;19.60;8.95;;;;;;;28.81;44.92;101184.59;5018237;28;66117;-42
2021/12/26 15:59:38;;;;;;;20.55;8.57;;;;;;;28.76;44.07;101175.44;5018847;28;69923;-43
2021/12/26 16:02:09;;;;;;;21.30;9.10;;;;;;;28.74;43.82;101186.41;5017125;28;66515;-43
2021/12/26 16:04:39;;;;;;;17.30;8.20;;;;;;;28.71;43.78;101184.13;5020540;28;71587;-41
2021/12/26 16:07:11;;;;;;;12.63;7.65;;;;;;;28.64;43.87;101178.69;5016748;28;65844;-44